Time;durP1;ratioP1;P1;durP2;ratioP2;P2;SDS_P1;SDS_P2;PMS_P1;PMS_P2;Temp;Humidity;BMP_temperature;BMP_pressure;BME280_temperature;BME280_humidity;BME280_pressure;Samples;Min_cycle;Max_cycle;Signal;HPM_P1;HPM_P2
2023/09/17 00:02:20;;;;;;;10.88;9.88;;;;;;;;;;10455921;27;20078;-66
2023/09/17 00:07:18;;;;;;;10.98;9.73;;;;;;;;;;10453706;27;20070;-67
2023/09/17 00:12:19;;;;;;;10.80;9.70;;;;;;;;;;10453998;27;20494;-66
2023/09/17 00:17:18;;;;;;;12.80;10.60;;;;;;;;;;10462880;27;20074;-67
2023/09/17 00:22:16;;;;;;;11.93;10.73;;;;;;;;;;10462081;27;20073;-67
2023/09/17 00:27:15;;;;;;;14.27;11.15;;;;;;;;;;10455634;27;20085;-67
2023/09/17 00:32:15;;;;;;;11.07;10.02;;;;;;;;;;10443079;27;20050;-67
2023/09/17 00:37:13;;;;;;;11.80;10.40;;;;;;;;;;10453691;27;20071;-67
2023/09/17 00:42:14;;;;;;;11.93;9.40;;;;;;;;;;10451083;27;20066;-67
2023/09/17 00:47:13;;;;;;;12.18;9.63;;;;;;;;;;10451725;27;20071;-67
2023/09/17 00:52:15;;;;;;;11.02;10.05;;;;;;;;;;10448494;27;20065;-68
2023/09/17 00:57:15;;;;;;;11.52;10.32;;;;;;;;;;10440688;27;20094;-68
2023/09/17 01:02:14;;;;;;;12.85;9.82;;;;;;;;;;10433741;27;20074;-69
2023/09/17 01:07:14;;;;;;;10.93;9.27;;;;;;;;;;10439060;27;20103;-67
2023/09/17 01:12:13;;;;;;;12.27;9.48;;;;;;;;;;10461608;27;20075;-67
2023/09/17 01:17:11;;;;;;;10.65;9.43;;;;;;;;;;10461829;27;20529;-67
2023/09/17 01:22:13;;;;;;;10.90;9.88;;;;;;;;;;10462790;27;20168;-68
2023/09/17 01:27:14;;;;;;;10.82;9.23;;;;;;;;;;10440588;27;20511;-67
2023/09/17 01:32:12;;;;;;;9.57;8.68;;;;;;;;;;10459526;27;20074;-66
2023/09/17 01:37:14;;;;;;;12.10;9.38;;;;;;;;;;10461074;27;20157;-67
2023/09/17 01:42:15;;;;;;;9.82;8.85;;;;;;;;;;10459661;27;20062;-66
2023/09/17 01:47:14;;;;;;;8.85;8.02;;;;;;;;;;10464199;27;20062;-66
2023/09/17 01:52:12;;;;;;;10.35;9.35;;;;;;;;;;10447718;27;20070;-67
2023/09/17 01:57:11;;;;;;;8.60;7.82;;;;;;;;;;10438109;27;20078;-68
2023/09/17 02:02:11;;;;;;;10.88;9.57;;;;;;;;;;10447429;27;20566;-67
2023/09/17 02:07:09;;;;;;;11.40;8.88;;;;;;;;;;10460246;27;20074;-67
2023/09/17 02:12:08;;;;;;;11.25;9.95;;;;;;;;;;10446676;27;20042;-67
2023/09/17 02:17:08;;;;;;;12.23;9.07;;;;;;;;;;10458949;27;20077;-66
2023/09/17 02:22:10;;;;;;;;;;;;;;;;;;10460011;27;20070;-67
2023/09/17 02:27:10;;;;;;;13.25;9.52;;;;;;;;;;10455416;27;19962;-67
2023/09/17 02:32:09;;;;;;;10.25;9.10;;;;;;;;;;10453795;27;20081;-67
2023/09/17 02:37:08;;;;;;;12.98;9.77;;;;;;;;;;10458726;27;20086;-67
2023/09/17 02:42:07;;;;;;;9.75;8.88;;;;;;;;;;10438748;27;20066;-67
2023/09/17 02:47:06;;;;;;;10.63;9.48;;;;;;;;;;10441000;27;20451;-66
2023/09/17 02:52:06;;;;;;;9.77;8.82;;;;;;;;;;10455423;27;20073;-67
2023/09/17 02:57:07;;;;;;;9.73;8.73;;;;;;;;;;10456547;27;20103;-66
2023/09/17 03:02:07;;;;;;;11.02;9.93;;;;;;;;;;10458134;27;20097;-67
2023/09/17 03:07:05;;;;;;;10.13;9.23;;;;;;;;;;10437261;27;20534;-68
2023/09/17 03:12:04;;;;;;;12.02;8.70;;;;;;;;;;10442451;27;20463;-67
2023/09/17 03:17:05;;;;;;;8.98;8.18;;;;;;;;;;10442341;27;20078;-66
2023/09/17 03:22:08;;;;;;;11.02;8.60;;;;;;;;;;10437770;27;20078;-66
2023/09/17 03:27:07;;;;;;;10.57;8.73;;;;;;;;;;10445539;27;20089;-67
2023/09/17 03:32:06;;;;;;;11.95;8.52;;;;;;;;;;10435093;27;20100;-67
2023/09/17 03:37:06;;;;;;;9.55;8.55;;;;;;;;;;10439621;27;20070;-66
2023/09/17 03:42:06;;;;;;;8.90;7.78;;;;;;;;;;10443722;27;20067;-67
2023/09/17 03:47:05;;;;;;;9.57;8.60;;;;;;;;;;10443129;27;20043;-67
2023/09/17 03:52:06;;;;;;;11.05;9.27;;;;;;;;;;10435015;27;20066;-67
2023/09/17 03:57:08;;;;;;;12.38;8.98;;;;;;;;;;10437859;27;20051;-67
2023/09/17 04:02:06;;;;;;;9.82;8.82;;;;;;;;;;10454743;27;20075;-67
2023/09/17 04:07:05;;;;;;;12.23;9.63;;;;;;;;;;10456888;27;20101;-67
2023/09/17 04:12:04;;;;;;;9.93;9.02;;;;;;;;;;10439594;27;20054;-66
2023/09/17 04:17:05;;;;;;;9.95;8.95;;;;;;;;;;10439811;27;20392;-66
2023/09/17 04:22:05;;;;;;;10.85;8.77;;;;;;;;;;10440485;27;20043;-67
2023/09/17 04:27:04;;;;;;;12.18;9.02;;;;;;;;;;10452217;27;20067;-67
2023/09/17 04:32:04;;;;;;;10.27;9.23;;;;;;;;;;10452869;27;20087;-68
2023/09/17 04:37:03;;;;;;;9.18;8.27;;;;;;;;;;10455695;27;20066;-66
2023/09/17 04:42:01;;;;;;;10.55;9.50;;;;;;;;;;10450254;27;20479;-66
2023/09/17 04:47:00;;;;;;;11.23;9.48;;;;;;;;;;10452411;27;20086;-67
2023/09/17 04:52:02;;;;;;;13.65;9.52;;;;;;;;;;10447308;27;20085;-67
2023/09/17 04:57:03;;;;;;;10.20;9.30;;;;;;;;;;10444289;27;20527;-67
2023/09/17 05:02:02;;;;;;;11.50;9.68;;;;;;;;;;10440268;27;20074;-67
2023/09/17 05:07:03;;;;;;;12.52;8.73;;;;;;;;;;10459650;27;20077;-67
2023/09/17 05:12:02;;;;;;;10.70;9.70;;;;;;;;;;10441475;27;20082;-67
2023/09/17 05:17:01;;;;;;;12.48;10.05;;;;;;;;;;10448578;27;20066;-67
2023/09/17 05:21:59;;;;;;;8.52;7.72;;;;;;;;;;10459139;27;20070;-67
2023/09/17 05:26:59;;;;;;;10.43;8.70;;;;;;;;;;10441920;27;20085;-65
2023/09/17 05:31:57;;;;;;;9.75;8.65;;;;;;;;;;10460284;27;20067;-66
2023/09/17 05:36:56;;;;;;;11.18;8.77;;;;;;;;;;10437617;27;20314;-66
2023/09/17 05:41:55;;;;;;;10.02;8.00;;;;;;;;;;10441111;27;20075;-67
2023/09/17 05:46:55;;;;;;;9.68;8.73;;;;;;;;;;10443868;27;20571;-68
2023/09/17 05:51:53;;;;;;;10.48;9.38;;;;;;;;;;10450249;27;20534;-68
2023/09/17 05:56:52;;;;;;;9.55;8.65;;;;;;;;;;10443936;27;20070;-67
2023/09/17 06:01:51;;;;;;;9.43;8.52;;;;;;;;;;10449927;27;20077;-66
2023/09/17 06:06:50;;;;;;;9.95;8.15;;;;;;;;;;10462513;27;20066;-67
2023/09/17 06:11:49;;;;;;;9.30;8.18;;;;;;;;;;10458353;27;20132;-66
2023/09/17 06:16:49;;;;;;;8.70;7.80;;;;;;;;;;10435492;27;20545;-66
2023/09/17 06:21:56;;;;;;;7.93;7.22;;;;;;;;;;10437211;27;20525;-67
2023/09/17 06:26:55;;;;;;;9.48;8.68;;;;;;;;;;10456624;27;20066;-67
2023/09/17 06:31:53;;;;;;;8.55;7.80;;;;;;;;;;10445735;27;20085;-68
2023/09/17 06:36:52;;;;;;;9.80;8.90;;;;;;;;;;10456801;27;20503;-67
2023/09/17 06:41:52;;;;;;;10.10;9.02;;;;;;;;;;10457475;27;20078;-66
2023/09/17 06:46:50;;;;;;;10.57;9.43;;;;;;;;;;10456379;27;20067;-67
2023/09/17 06:51:50;;;;;;;9.82;8.80;;;;;;;;;;10457556;27;20070;-67
2023/09/17 06:56:48;;;;;;;10.57;9.60;;;;;;;;;;10456196;27;20073;-66
2023/09/17 07:01:48;;;;;;;11.98;9.65;;;;;;;;;;10436268;27;20071;-66
2023/09/17 07:06:46;;;;;;;9.80;8.93;;;;;;;;;;10457101;27;20462;-66
2023/09/17 07:11:45;;;;;;;14.25;10.90;;;;;;;;;;10453874;27;20209;-67
2023/09/17 07:16:44;;;;;;;11.13;10.13;;;;;;;;;;10451707;27;20074;-67
2023/09/17 07:21:44;;;;;;;11.25;10.25;;;;;;;;;;10455735;27;20282;-67
2023/09/17 07:26:42;;;;;;;10.55;9.43;;;;;;;;;;10459706;27;20082;-67
2023/09/17 07:31:41;;;;;;;9.98;9.02;;;;;;;;;;10455865;27;20538;-67
2023/09/17 07:36:40;;;;;;;10.23;9.23;;;;;;;;;;10436027;27;20073;-67
2023/09/17 07:41:39;;;;;;;9.88;8.88;;;;;;;;;;10455480;27;20494;-66
2023/09/17 07:46:38;;;;;;;10.18;9.23;;;;;;;;;;10455534;27;20062;-66
2023/09/17 07:51:36;;;;;;;9.40;8.68;;;;;;;;;;10456850;27;20081;-67
2023/09/17 07:56:35;;;;;;;9.68;8.77;;;;;;;;;;10456213;27;20069;-66
2023/09/17 08:01:34;;;;;;;10.48;8.35;;;;;;;;;;10452229;27;20070;-67
2023/09/17 08:06:34;;;;;;;10.27;8.65;;;;;;;;;;10450374;27;20071;-67
2023/09/17 08:11:33;;;;;;;9.52;8.60;;;;;;;;;;10454953;27;20063;-67
2023/09/17 08:16:31;;;;;;;12.85;9.10;;;;;;;;;;10436009;27;20553;-67
2023/09/17 08:21:31;;;;;;;9.55;7.45;;;;;;;;;;10456119;27;20070;-67
2023/09/17 08:26:30;;;;;;;8.43;7.63;;;;;;;;;;10453099;27;20070;-67
2023/09/17 08:31:28;;;;;;;12.10;7.78;;;;;;;;;;10454232;27;20089;-67
2023/09/17 08:36:27;;;;;;;12.48;7.60;;;;;;;;;;10453041;27;20089;-68
2023/09/17 08:41:26;;;;;;;10.40;8.13;;;;;;;;;;10454663;27;20074;-68
2023/09/17 08:46:25;;;;;;;8.38;6.85;;;;;;;;;;10449990;27;20070;-67
2023/09/17 08:51:25;;;;;;;8.73;7.65;;;;;;;;;;10452993;27;20475;-67
2023/09/17 08:56:24;;;;;;;8.48;7.57;;;;;;;;;;10453751;27;20059;-67
2023/09/17 09:01:25;;;;;;;9.40;7.13;;;;;;;;;;10451037;27;20063;-67
2023/09/17 09:06:25;;;;;;;7.15;6.43;;;;;;;;;;10454853;27;20063;-67
2023/09/17 09:11:24;;;;;;;8.38;6.82;;;;;;;;;;10452598;27;20530;-67
2023/09/17 09:16:22;;;;;;;9.70;6.65;;;;;;;;;;10456873;27;20515;-68
2023/09/17 09:21:23;;;;;;;7.60;6.18;;;;;;;;;;10453256;27;20074;-68
2023/09/17 09:26:21;;;;;;;11.90;7.88;;;;;;;;;;10436020;27;20098;-67
2023/09/17 09:31:20;;;;;;;7.10;6.40;;;;;;;;;;10457267;27;20062;-68
2023/09/17 09:36:19;;;;;;;7.13;6.07;;;;;;;;;;10460065;27;20086;-66
2023/09/17 09:41:19;;;;;;;8.35;6.70;;;;;;;;;;10441824;27;20488;-69
2023/09/17 09:46:17;;;;;;;8.95;6.25;;;;;;;;;;10461013;27;20062;-68
2023/09/17 09:51:16;;;;;;;12.93;6.68;;;;;;;;;;10456948;27;20129;-67
2023/09/17 09:56:15;;;;;;;9.07;6.68;;;;;;;;;;10462079;27;20582;-65
2023/09/17 10:01:17;;;;;;;6.75;5.88;;;;;;;;;;10458444;27;20089;-66
2023/09/17 10:06:15;;;;;;;8.10;6.53;;;;;;;;;;10455780;27;20071;-66
2023/09/17 10:11:15;;;;;;;7.60;6.88;;;;;;;;;;10454394;27;20062;-66
2023/09/17 10:16:14;;;;;;;7.47;6.75;;;;;;;;;;10459977;27;20642;-65
2023/09/17 10:21:15;;;;;;;8.43;6.60;;;;;;;;;;10460634;27;20059;-66
2023/09/17 10:26:15;;;;;;;7.22;6.53;;;;;;;;;;10465150;27;20067;-66
2023/09/17 10:31:14;;;;;;;8.13;7.18;;;;;;;;;;10450280;27;20075;-66
2023/09/17 10:36:13;;;;;;;9.40;6.38;;;;;;;;;;10453597;27;20078;-67
2023/09/17 10:41:13;;;;;;;7.93;7.13;;;;;;;;;;10451074;27;20066;-67
2023/09/17 10:46:13;;;;;;;6.82;6.22;;;;;;;;;;10457494;27;20065;-66
2023/09/17 10:51:12;;;;;;;8.73;5.82;;;;;;;;;;10456199;27;20058;-66
2023/09/17 10:56:11;;;;;;;9.02;6.45;;;;;;;;;;10457044;27;20074;-66
2023/09/17 11:01:13;;;;;;;7.45;5.72;;;;;;;;;;10456648;27;20062;-67
2023/09/17 11:06:16;;;;;;;10.43;6.63;;;;;;;;;;10450647;27;20515;-66
2023/09/17 11:11:15;;;;;;;6.70;6.17;;;;;;;;;;10455343;27;20074;-66
2023/09/17 11:16:16;;;;;;;15.07;12.18;;;;;;;;;;10458950;27;20058;-66
2023/09/17 11:21:16;;;;;;;6.63;5.88;;;;;;;;;;10455286;27;20086;-67
2023/09/17 11:26:15;;;;;;;6.43;5.30;;;;;;;;;;10456243;27;20067;-68
2023/09/17 11:31:14;;;;;;;5.72;5.22;;;;;;;;;;10412859;27;20110;-66
2023/09/17 11:36:15;;;;;;;6.45;5.20;;;;;;;;;;10415361;27;20071;-67
2023/09/17 11:41:15;;;;;;;9.27;5.40;;;;;;;;;;10414041;27;20228;-65
2023/09/17 11:46:14;;;;;;;5.72;4.72;;;;;;;;;;10414187;27;20093;-67
2023/09/17 11:51:24;;;;;;;5.38;4.80;;;;;;;;;;10410693;27;20067;-66
2023/09/17 11:56:22;;;;;;;5.03;4.53;;;;;;;;;;10409021;27;20071;-66
2023/09/17 12:01:22;;;;;;;7.72;5.43;;;;;;;;;;10407463;27;20063;-66
2023/09/17 12:06:20;;;;;;;5.45;5.00;;;;;;;;;;10415424;27;20105;-66
2023/09/17 12:11:22;;;;;;;7.30;4.75;;;;;;;;;;10410234;27;20060;-66
2023/09/17 12:16:23;;;;;;;6.50;4.82;;;;;;;;;;10413542;27;20520;-67
2023/09/17 12:21:22;;;;;;;8.68;4.50;;;;;;;;;;10410631;28;20082;-66
2023/09/17 12:31:59;;;;;;;11.88;5.75;;;;;;;;;;10396282;28;20488;-66
2023/09/17 12:36:57;;;;;;;8.10;4.97;;;;;;;;;;10411411;28;20067;-66
2023/09/17 12:41:57;;;;;;;6.60;4.75;;;;;;;;;;10412984;28;20067;-66
2023/09/17 12:46:55;;;;;;;6.35;4.70;;;;;;;;;;10411381;28;20067;-66
2023/09/17 12:51:54;;;;;;;5.35;4.85;;;;;;;;;;10407441;28;20075;-66
2023/09/17 12:56:53;;;;;;;8.23;4.72;;;;;;;;;;10410180;28;20075;-66
2023/09/17 13:01:52;;;;;;;9.43;5.10;;;;;;;;;;10416514;27;20066;-67
2023/09/17 13:06:51;;;;;;;5.60;4.30;;;;;;;;;;10421124;27;20064;-66
2023/09/17 13:11:53;;;;;;;4.68;3.75;;;;;;;;;;10417430;27;20070;-66
2023/09/17 13:16:53;;;;;;;11.52;3.78;;;;;;;;;;10425630;27;20075;-66
2023/09/17 13:21:52;;;;;;;4.70;3.85;;;;;;;;;;10420100;27;20101;-65
2023/09/17 13:26:50;;;;;;;6.70;4.57;;;;;;;;;;10417272;27;20043;-67
2023/09/17 13:31:52;;;;;;;4.82;3.63;;;;;;;;;;10460077;27;20074;-66
2023/09/17 13:36:53;;;;;;;4.72;4.07;;;;;;;;;;10460163;27;20089;-65
2023/09/17 13:41:55;;;;;;;5.10;4.22;;;;;;;;;;10460046;27;20082;-65
2023/09/17 13:46:54;;;;;;;6.75;3.72;;;;;;;;;;10457874;27;20067;-66
2023/09/17 13:51:54;;;;;;;4.72;4.32;;;;;;;;;;10459519;27;20075;-65
2023/09/17 13:56:53;;;;;;;8.30;4.10;;;;;;;;;;10459620;27;20465;-67
2023/09/17 14:01:51;;;;;;;7.43;4.38;;;;;;;;;;10459748;27;20074;-67
2023/09/17 14:06:51;;;;;;;6.93;3.83;;;;;;;;;;10457962;27;20063;-66
2023/09/17 14:11:51;;;;;;;5.80;3.72;;;;;;;;;;10460877;27;20069;-64
2023/09/17 14:16:49;;;;;;;4.68;3.80;;;;;;;;;;10460152;27;20078;-67
2023/09/17 14:21:50;;;;;;;5.90;3.83;;;;;;;;;;10432810;27;20101;-67
2023/09/17 14:26:48;;;;;;;3.85;3.45;;;;;;;;;;10457388;27;20093;-65
2023/09/17 14:31:48;;;;;;;4.00;3.60;;;;;;;;;;10458778;27;20067;-66
2023/09/17 14:36:46;;;;;;;9.10;3.60;;;;;;;;;;10458115;27;20472;-66
2023/09/17 14:41:44;;;;;;;5.93;4.35;;;;;;;;;;10457156;27;20070;-67
2023/09/17 14:46:43;;;;;;;5.35;3.60;;;;;;;;;;10442788;27;20085;-67
2023/09/17 14:51:42;;;;;;;5.43;3.50;;;;;;;;;;10460461;27;20062;-66
2023/09/17 14:56:41;;;;;;;5.53;4.28;;;;;;;;;;10456206;27;20062;-66
2023/09/17 15:01:39;;;;;;;5.38;3.15;;;;;;;;;;10450964;27;20075;-66
2023/09/17 15:06:58;;;;;;;11.20;3.92;;;;;;;;;;10434718;27;20666;-67
2023/09/17 15:11:56;;;;;;;4.90;3.85;;;;;;;;;;10450862;27;20067;-66
2023/09/17 15:16:55;;;;;;;3.78;3.40;;;;;;;;;;10456776;27;20415;-66
2023/09/17 15:21:53;;;;;;;5.03;3.60;;;;;;;;;;10458855;27;20074;-66
2023/09/17 15:26:53;;;;;;;7.95;4.00;;;;;;;;;;10454028;27;20572;-66
2023/09/17 15:31:54;;;;;;;4.93;3.83;;;;;;;;;;10455368;27;20349;-65
2023/09/17 15:36:52;;;;;;;12.88;6.97;;;;;;;;;;10454528;27;20078;-66
2023/09/17 15:41:51;;;;;;;8.75;4.22;;;;;;;;;;10456459;27;20467;-65
2023/09/17 15:46:50;;;;;;;9.38;3.75;;;;;;;;;;10442043;27;20078;-65
2023/09/17 15:51:49;;;;;;;6.88;3.80;;;;;;;;;;10454691;27;20070;-67
2023/09/17 15:56:47;;;;;;;7.97;3.28;;;;;;;;;;10453367;27;20055;-66
2023/09/17 16:01:45;;;;;;;13.18;4.50;;;;;;;;;;10451976;27;20063;-66
2023/09/17 16:06:45;;;;;;;6.03;3.85;;;;;;;;;;10454437;27;20058;-66
2023/09/17 16:11:44;;;;;;;9.15;3.50;;;;;;;;;;10453339;27;20100;-65
2023/09/17 16:16:42;;;;;;;8.18;3.92;;;;;;;;;;10453275;27;20058;-65
2023/09/17 16:21:41;;;;;;;8.15;3.58;;;;;;;;;;10457949;27;20070;-67
2023/09/17 16:26:40;;;;;;;6.07;3.40;;;;;;;;;;10457015;27;20074;-67
2023/09/17 16:31:39;;;;;;;8.20;3.58;;;;;;;;;;10454875;27;20098;-66
2023/09/17 16:36:39;;;;;;;4.75;2.78;;;;;;;;;;10456640;27;20075;-66
2023/09/17 16:41:38;;;;;;;6.22;3.22;;;;;;;;;;10462523;27;20075;-66
2023/09/17 16:46:37;;;;;;;3.78;2.90;;;;;;;;;;10461857;27;20070;-66
2023/09/17 16:51:41;;;;;;;3.97;2.90;;;;;;;;;;10460039;27;20058;-66
2023/09/17 16:56:40;;;;;;;5.00;3.15;;;;;;;;;;10461520;27;20067;-65
2023/09/17 17:01:40;;;;;;;3.40;3.03;;;;;;;;;;10461282;27;20064;-65
2023/09/17 17:06:39;;;;;;;3.33;2.80;;;;;;;;;;10460194;27;20078;-66
2023/09/17 17:11:37;;;;;;;6.57;2.65;;;;;;;;;;10462664;27;20074;-66
2023/09/17 17:16:37;;;;;;;4.07;2.88;;;;;;;;;;10451331;27;20078;-66
2023/09/17 17:21:37;;;;;;;3.13;2.45;;;;;;;;;;10462222;27;20537;-66
2023/09/17 17:26:36;;;;;;;6.38;2.42;;;;;;;;;;10458543;27;20503;-67
2023/09/17 17:31:34;;;;;;;4.72;2.88;;;;;;;;;;10459160;27;20071;-68
2023/09/17 17:36:33;;;;;;;7.90;2.88;;;;;;;;;;10456326;27;20066;-66
2023/09/17 17:41:33;;;;;;;3.17;2.50;;;;;;;;;;10457525;27;20063;-65
2023/09/17 17:46:31;;;;;;;6.70;3.58;;;;;;;;;;10456022;27;20074;-66
2023/09/17 17:51:29;;;;;;;3.03;2.53;;;;;;;;;;10453108;27;20071;-66
2023/09/17 17:56:27;;;;;;;4.38;2.85;;;;;;;;;;10454914;27;20535;-67
2023/09/17 18:01:27;;;;;;;3.22;2.10;;;;;;;;;;10454501;27;20081;-65
2023/09/17 18:06:25;;;;;;;3.70;2.50;;;;;;;;;;10460577;27;20077;-66
2023/09/17 18:11:24;;;;;;;3.38;3.05;;;;;;;;;;10456349;27;20058;-65
2023/09/17 18:16:23;;;;;;;3.65;2.65;;;;;;;;;;10459761;27;20151;-65
2023/09/17 18:21:23;;;;;;;4.32;2.75;;;;;;;;;;10457070;27;20082;-65
2023/09/17 18:26:21;;;;;;;2.75;2.53;;;;;;;;;;10458785;27;20066;-65
2023/09/17 18:31:19;;;;;;;4.40;2.50;;;;;;;;;;10417246;27;1131103;-66
2023/09/17 18:36:18;;;;;;;3.30;2.78;;;;;;;;;;10458048;27;20082;-66
2023/09/17 18:41:17;;;;;;;5.15;3.65;;;;;;;;;;10460525;27;20070;-66
2023/09/17 18:46:19;;;;;;;5.85;2.72;;;;;;;;;;10457343;27;20074;-66
2023/09/17 18:51:19;;;;;;;4.22;2.72;;;;;;;;;;10457021;27;20074;-67
2023/09/17 18:56:20;;;;;;;4.88;3.28;;;;;;;;;;10458329;27;20508;-67
2023/09/17 19:01:18;;;;;;;4.22;3.15;;;;;;;;;;10457087;27;20082;-66
2023/09/17 19:06:17;;;;;;;6.25;3.00;;;;;;;;;;10455577;27;20067;-66
2023/09/17 19:11:15;;;;;;;5.97;3.08;;;;;;;;;;10454487;27;20066;-66
2023/09/17 19:16:15;;;;;;;6.45;2.60;;;;;;;;;;10454886;27;20124;-67
2023/09/17 19:21:14;;;;;;;8.23;3.75;;;;;;;;;;10457098;27;20067;-66
2023/09/17 19:26:14;;;;;;;6.13;3.33;;;;;;;;;;10454933;27;20451;-66
2023/09/17 19:31:12;;;;;;;9.20;3.83;;;;;;;;;;10455764;27;20081;-66
2023/09/17 19:36:12;;;;;;;5.60;3.90;;;;;;;;;;10455979;27;20062;-66
2023/09/17 19:41:10;;;;;;;6.95;2.97;;;;;;;;;;10454507;27;20070;-66
2023/09/17 19:46:08;;;;;;;6.55;3.28;;;;;;;;;;10452650;27;20075;-65
2023/09/17 19:51:10;;;;;;;8.75;4.38;;;;;;;;;;10456898;27;20070;-66
2023/09/17 19:56:10;;;;;;;8.30;3.65;;;;;;;;;;10455672;27;20494;-66
2023/09/17 20:01:08;;;;;;;5.35;3.75;;;;;;;;;;10460262;27;20097;-67
2023/09/17 20:06:06;;;;;;;8.93;4.20;;;;;;;;;;10455970;27;20066;-67
2023/09/17 20:11:04;;;;;;;8.70;2.85;;;;;;;;;;10454717;27;20065;-66
2023/09/17 20:16:04;;;;;;;6.45;4.05;;;;;;;;;;10459115;27;20086;-66
2023/09/17 20:21:03;;;;;;;4.55;3.38;;;;;;;;;;10457891;27;20073;-66
2023/09/17 20:26:01;;;;;;;3.97;2.92;;;;;;;;;;10454917;27;20066;-66
2023/09/17 20:30:59;;;;;;;4.63;3.40;;;;;;;;;;10454590;27;20085;-66
2023/09/17 20:35:59;;;;;;;3.78;3.13;;;;;;;;;;10455946;27;20074;-66
2023/09/17 20:40:59;;;;;;;4.68;3.38;;;;;;;;;;10451178;27;20527;-67
2023/09/17 20:45:57;;;;;;;4.95;3.00;;;;;;;;;;10459415;27;20207;-67
2023/09/17 20:50:56;;;;;;;5.10;2.90;;;;;;;;;;10456372;27;20437;-66
2023/09/17 20:55:56;;;;;;;4.65;3.00;;;;;;;;;;10452416;27;20566;-67
2023/09/17 21:00:54;;;;;;;4.78;2.88;;;;;;;;;;10453815;27;20758;-66
2023/09/17 21:05:52;;;;;;;8.38;3.70;;;;;;;;;;10454810;27;20084;-67
2023/09/17 21:10:50;;;;;;;7.90;3.78;;;;;;;;;;10455533;27;20067;-67
2023/09/17 21:15:51;;;;;;;3.22;2.50;;;;;;;;;;10431092;27;20078;-67
2023/09/17 21:20:50;;;;;;;2.90;2.60;;;;;;;;;;10450578;27;20058;-67
2023/09/17 21:25:49;;;;;;;3.35;2.58;;;;;;;;;;10463722;27;20081;-67
2023/09/17 21:30:47;;;;;;;8.25;3.10;;;;;;;;;;10454571;27;20078;-67
2023/09/17 21:35:47;;;;;;;6.20;3.33;;;;;;;;;;10455327;27;20537;-67
2023/09/17 21:40:45;;;;;;;4.43;3.13;;;;;;;;;;10451841;27;20067;-66
2023/09/17 21:45:44;;;;;;;5.00;3.35;;;;;;;;;;10455604;27;20062;-66
2023/09/17 21:50:42;;;;;;;4.45;3.13;;;;;;;;;;10460767;27;20066;-66
2023/09/17 21:55:41;;;;;;;6.97;2.80;;;;;;;;;;10459901;27;20475;-66
2023/09/17 22:00:40;;;;;;;4.13;3.33;;;;;;;;;;10460025;27;20104;-68
2023/09/17 22:05:41;;;;;;;4.72;2.90;;;;;;;;;;10460923;27;20076;-66
2023/09/17 22:10:40;;;;;;;4.25;2.97;;;;;;;;;;10456862;27;20078;-66
2023/09/17 22:15:40;;;;;;;5.70;3.70;;;;;;;;;;10459395;27;20538;-66
2023/09/17 22:20:38;;;;;;;4.03;3.20;;;;;;;;;;10460157;27;20074;-65
2023/09/17 22:25:38;;;;;;;4.57;3.50;;;;;;;;;;10437260;27;20663;-67
2023/09/17 22:30:36;;;;;;;7.75;3.80;;;;;;;;;;10460140;27;20112;-66
2023/09/17 22:35:37;;;;;;;4.95;3.42;;;;;;;;;;10457858;27;20063;-67
2023/09/17 22:40:39;;;;;;;7.75;3.95;;;;;;;;;;10456737;27;20066;-67
2023/09/17 22:45:37;;;;;;;5.43;3.55;;;;;;;;;;10457903;27;20082;-67
2023/09/17 22:50:37;;;;;;;4.45;3.72;;;;;;;;;;10457995;27;20070;-64
2023/09/17 22:55:35;;;;;;;5.05;3.30;;;;;;;;;;10458357;27;20062;-67
2023/09/17 23:00:34;;;;;;;3.95;3.42;;;;;;;;;;10458754;27;20075;-67
2023/09/17 23:05:32;;;;;;;6.85;4.45;;;;;;;;;;10455737;27;20063;-67
2023/09/17 23:10:33;;;;;;;7.43;3.80;;;;;;;;;;10456601;27;20089;-67
2023/09/17 23:15:31;;;;;;;6.15;3.67;;;;;;;;;;10455644;27;20066;-67
2023/09/17 23:20:29;;;;;;;8.75;4.07;;;;;;;;;;10458675;27;20097;-67
2023/09/17 23:25:28;;;;;;;5.35;3.45;;;;;;;;;;10458210;27;20100;-66
2023/09/17 23:30:27;;;;;;;6.20;4.28;;;;;;;;;;10455868;27;20089;-67
2023/09/17 23:35:26;;;;;;;4.55;3.75;;;;;;;;;;10451199;27;20082;-67
2023/09/17 23:40:24;;;;;;;5.18;3.65;;;;;;;;;;10456274;27;20070;-67
2023/09/17 23:45:22;;;;;;;6.18;3.72;;;;;;;;;;10454717;27;20074;-67
2023/09/17 23:50:22;;;;;;;5.05;3.35;;;;;;;;;;10458844;27;20069;-65
2023/09/17 23:55:21;;;;;;;8.85;4.00;;;;;;;;;;10450778;27;20523;-66
